sensor_id;sensor_type;location;lat;lon;timestamp;pressure;altitude;pressure_sealevel;temperature;humidity
48614;BME280;34408;51.426;5.444;2024-01-25T00:01:36;102762.22;;;10.06;65.95
48614;BME280;34408;51.426;5.444;2024-01-25T00:04:04;102763.06;;;10.07;66.27
48614;BME280;34408;51.426;5.444;2024-01-25T00:06:32;102783.69;;;10.06;66.04
48614;BME280;34408;51.426;5.444;2024-01-25T00:09:00;102779.34;;;10.05;66.24
48614;BME280;34408;51.426;5.444;2024-01-25T00:11:30;102780.53;;;10.03;66.36
48614;BME280;34408;51.426;5.444;2024-01-25T00:13:58;102767.09;;;10.03;66.30
48614;BME280;34408;51.426;5.444;2024-01-25T00:16:27;102769.94;;;10.01;66.27
48614;BME280;34408;51.426;5.444;2024-01-25T00:18:56;102777.16;;;10.01;66.25
48614;BME280;34408;51.426;5.444;2024-01-25T00:21:24;102776.31;;;10.00;66.29
48614;BME280;34408;51.426;5.444;2024-01-25T00:23:51;102789.75;;;10.00;66.26
48614;BME280;34408;51.426;5.444;2024-01-25T00:26:19;102772.97;;;9.98;66.19
48614;BME280;34408;51.426;5.444;2024-01-25T00:28:48;102772.13;;;9.98;66.32
48614;BME280;34408;51.426;5.444;2024-01-25T00:31:15;102773.16;;;9.97;66.34
48614;BME280;34408;51.426;5.444;2024-01-25T00:33:43;102785.72;;;9.96;66.33
48614;BME280;34408;51.426;5.444;2024-01-25T00:36:14;102785.06;;;9.94;66.38
48614;BME280;34408;51.426;5.444;2024-01-25T00:38:43;102773.47;;;9.94;66.40
48614;BME280;34408;51.426;5.444;2024-01-25T00:41:16;102773.66;;;9.92;66.67
48614;BME280;34408;51.426;5.444;2024-01-25T00:43:46;102767.78;;;9.89;66.62
48614;BME280;34408;51.426;5.444;2024-01-25T00:46:14;102775.66;;;9.90;66.61
48614;BME280;34408;51.426;5.444;2024-01-25T00:48:42;102769.47;;;9.90;66.71
48614;BME280;34408;51.426;5.444;2024-01-25T00:51:15;102764.25;;;9.88;66.57
48614;BME280;34408;51.426;5.444;2024-01-25T00:53:43;102774.16;;;9.88;66.80
48614;BME280;34408;51.426;5.444;2024-01-25T00:56:12;102772.50;;;9.87;66.75
48614;BME280;34408;51.426;5.444;2024-01-25T00:58:40;102781.56;;;9.86;66.54
48614;BME280;34408;51.426;5.444;2024-01-25T01:01:09;102781.56;;;9.86;66.68
48614;BME280;34408;51.426;5.444;2024-01-25T01:03:37;102790.63;;;9.85;66.64
48614;BME280;34408;51.426;5.444;2024-01-25T01:06:07;102783.41;;;9.85;66.59
48614;BME280;34408;51.426;5.444;2024-01-25T01:08:37;102774.66;;;9.83;66.56
48614;BME280;34408;51.426;5.444;2024-01-25T01:11:04;102779.19;;;9.83;66.63
48614;BME280;34408;51.426;5.444;2024-01-25T01:13:32;102773.84;;;9.83;66.16
48614;BME280;34408;51.426;5.444;2024-01-25T01:16:00;102780.72;;;9.85;66.67
48614;BME280;34408;51.426;5.444;2024-01-25T01:18:28;102791.47;;;9.85;66.84
48614;BME280;34408;51.426;5.444;2024-01-25T01:20:56;102794.13;;;9.85;66.55
48614;BME280;34408;51.426;5.444;2024-01-25T01:23:24;102788.78;;;9.85;66.50
48614;BME280;34408;51.426;5.444;2024-01-25T01:25:53;102792.47;;;9.84;66.41
48614;BME280;34408;51.426;5.444;2024-01-25T01:28:21;102811.44;;;9.83;66.40
48614;BME280;34408;51.426;5.444;2024-01-25T01:30:49;102805.22;;;9.82;66.69
48614;BME280;34408;51.426;5.444;2024-01-25T01:33:16;102807.91;;;9.82;66.63
48614;BME280;34408;51.426;5.444;2024-01-25T01:35:44;102802.69;;;9.81;66.63
48614;BME280;34408;51.426;5.444;2024-01-25T01:38:12;102799.00;;;9.82;66.62
48614;BME280;34408;51.426;5.444;2024-01-25T01:40:40;102794.66;;;9.81;66.59
48614;BME280;34408;51.426;5.444;2024-01-25T01:43:17;102797.50;;;9.79;66.60
48614;BME280;34408;51.426;5.444;2024-01-25T01:45:45;102812.28;;;9.75;66.69
48614;BME280;34408;51.426;5.444;2024-01-25T01:48:13;102808.41;;;9.77;66.57
48614;BME280;34408;51.426;5.444;2024-01-25T01:50:42;102808.41;;;9.77;66.96
48614;BME280;34408;51.426;5.444;2024-01-25T01:53:11;102807.75;;;9.75;66.79
48614;BME280;34408;51.426;5.444;2024-01-25T01:55:39;102814.97;;;9.75;67.00
48614;BME280;34408;51.426;5.444;2024-01-25T01:58:09;102814.28;;;9.73;66.65
48614;BME280;34408;51.426;5.444;2024-01-25T02:00:37;102815.28;;;9.72;66.86
48614;BME280;34408;51.426;5.444;2024-01-25T02:03:06;102830.91;;;9.68;66.99
48614;BME280;34408;51.426;5.444;2024-01-25T02:05:34;102822.16;;;9.66;67.07
48614;BME280;34408;51.426;5.444;2024-01-25T02:08:03;102829.38;;;9.66;67.09
48614;BME280;34408;51.426;5.444;2024-01-25T02:10:31;102834.91;;;9.64;66.83
48614;BME280;34408;51.426;5.444;2024-01-25T02:12:59;102837.78;;;9.63;67.33
48614;BME280;34408;51.426;5.444;2024-01-25T02:15:28;102843.31;;;9.61;66.99
48614;BME280;34408;51.426;5.444;2024-01-25T02:17:56;102842.63;;;9.59;67.15
48614;BME280;34408;51.426;5.444;2024-01-25T02:20:24;102852.53;;;9.59;67.17
48614;BME280;34408;51.426;5.444;2024-01-25T02:22:54;102859.75;;;9.58;67.20
48614;BME280;34408;51.426;5.444;2024-01-25T02:25:21;102864.44;;;9.56;66.94
48614;BME280;34408;51.426;5.444;2024-01-25T02:27:50;102862.75;;;9.55;67.11
48614;BME280;34408;51.426;5.444;2024-01-25T02:30:18;102856.56;;;9.55;67.15
48614;BME280;34408;51.426;5.444;2024-01-25T02:32:45;102862.09;;;9.53;66.98
48614;BME280;34408;51.426;5.444;2024-01-25T02:35:13;102876.50;;;9.52;67.12
48614;BME280;34408;51.426;5.444;2024-01-25T02:37:41;102874.84;;;9.51;67.02
48614;BME280;34408;51.426;5.444;2024-01-25T02:40:12;102874.00;;;9.51;67.08
48614;BME280;34408;51.426;5.444;2024-01-25T02:42:40;102878.69;;;9.49;67.29
48614;BME280;34408;51.426;5.444;2024-01-25T02:45:08;102877.00;;;9.48;67.26
48614;BME280;34408;51.426;5.444;2024-01-25T02:47:36;102877.19;;;9.46;67.03
48614;BME280;34408;51.426;5.444;2024-01-25T02:50:05;102877.19;;;9.46;66.78
48614;BME280;34408;51.426;5.444;2024-01-25T02:52:33;102874.66;;;9.44;67.27
48614;BME280;34408;51.426;5.444;2024-01-25T02:55:01;102867.59;;;9.43;67.28
48614;BME280;34408;51.426;5.444;2024-01-25T02:57:30;102873.97;;;9.42;67.03
48614;BME280;34408;51.426;5.444;2024-01-25T03:00:00;102857.88;;;9.42;66.52
48614;BME280;34408;51.426;5.444;2024-01-25T03:02:28;102859.88;;;9.40;66.63
48614;BME280;34408;51.426;5.444;2024-01-25T03:04:55;102862.75;;;9.39;66.96
48614;BME280;34408;51.426;5.444;2024-01-25T03:07:23;102860.22;;;9.37;67.05
48614;BME280;34408;51.426;5.444;2024-01-25T03:09:51;102862.91;;;9.37;67.04
48614;BME280;34408;51.426;5.444;2024-01-25T03:12:19;102870.09;;;9.37;66.71
48614;BME280;34408;51.426;5.444;2024-01-25T03:14:47;102862.06;;;9.37;66.65
48614;BME280;34408;51.426;5.444;2024-01-25T03:17:16;102864.91;;;9.35;66.81
48614;BME280;34408;51.426;5.444;2024-01-25T03:19:44;102863.41;;;9.33;66.63
48614;BME280;34408;51.426;5.444;2024-01-25T03:22:12;102862.72;;;9.31;66.90
48614;BME280;34408;51.426;5.444;2024-01-25T03:24:40;102861.19;;;9.28;66.98
48614;BME280;34408;51.426;5.444;2024-01-25T03:27:08;102859.34;;;9.29;66.69
48614;BME280;34408;51.426;5.444;2024-01-25T03:29:41;102859.34;;;9.29;67.01
48614;BME280;34408;51.426;5.444;2024-01-25T03:32:10;102861.38;;;9.27;66.80
48614;BME280;34408;51.426;5.444;2024-01-25T03:34:38;102858.53;;;9.28;66.74
48614;BME280;34408;51.426;5.444;2024-01-25T03:37:07;102869.25;;;9.28;66.46
48614;BME280;34408;51.426;5.444;2024-01-25T03:39:35;102861.19;;;9.28;66.81
48614;BME280;34408;51.426;5.444;2024-01-25T03:42:03;102871.94;;;9.28;66.52
48614;BME280;34408;51.426;5.444;2024-01-25T03:44:31;102867.56;;;9.27;66.70
48614;BME280;34408;51.426;5.444;2024-01-25T03:46:59;102871.09;;;9.28;66.38
48614;BME280;34408;51.426;5.444;2024-01-25T03:49:28;102872.09;;;9.27;66.58
48614;BME280;34408;51.426;5.444;2024-01-25T03:51:56;102878.47;;;9.26;66.76
48614;BME280;34408;51.426;5.444;2024-01-25T03:54:24;102873.09;;;9.26;66.51
48614;BME280;34408;51.426;5.444;2024-01-25T03:56:52;102877.63;;;9.25;66.13
48614;BME280;34408;51.426;5.444;2024-01-25T03:59:20;102871.41;;;9.25;66.60
48614;BME280;34408;51.426;5.444;2024-01-25T04:01:47;102873.25;;;9.24;66.40
48614;BME280;34408;51.426;5.444;2024-01-25T04:04:16;102873.44;;;9.23;66.35
48614;BME280;34408;51.426;5.444;2024-01-25T04:06:46;102871.75;;;9.22;66.16
48614;BME280;34408;51.426;5.444;2024-01-25T04:09:14;102877.13;;;9.22;66.45
48614;BME280;34408;51.426;5.444;2024-01-25T04:11:42;102877.44;;;9.19;66.12
48614;BME280;34408;51.426;5.444;2024-01-25T04:14:10;102892.53;;;9.20;66.45
48614;BME280;34408;51.426;5.444;2024-01-25T04:16:38;102887.31;;;9.18;66.62
48614;BME280;34408;51.426;5.444;2024-01-25T04:19:07;102896.53;;;9.16;66.39
48614;BME280;34408;51.426;5.444;2024-01-25T04:21:39;102884.97;;;9.15;66.28
48614;BME280;34408;51.426;5.444;2024-01-25T04:24:08;102890.50;;;9.13;66.82
48614;BME280;34408;51.426;5.444;2024-01-25T04:26:36;102889.81;;;9.11;66.37
48614;BME280;34408;51.426;5.444;2024-01-25T04:29:03;102883.78;;;9.09;66.45
48614;BME280;34408;51.426;5.444;2024-01-25T04:31:32;102876.72;;;9.08;66.17
48614;BME280;34408;51.426;5.444;2024-01-25T04:34:00;102869.69;;;9.07;66.70
48614;BME280;34408;51.426;5.444;2024-01-25T04:36:28;102869.84;;;9.06;66.17
48614;BME280;34408;51.426;5.444;2024-01-25T04:38:56;102878.91;;;9.05;66.66
48614;BME280;34408;51.426;5.444;2024-01-25T04:41:25;102873.69;;;9.03;66.05
48614;BME280;34408;51.426;5.444;2024-01-25T04:43:53;102870.34;;;9.01;66.60
48614;BME280;34408;51.426;5.444;2024-01-25T04:46:21;102868.66;;;9.00;66.73
48614;BME280;34408;51.426;5.444;2024-01-25T04:48:49;102875.03;;;8.99;66.58
48614;BME280;34408;51.426;5.444;2024-01-25T04:51:18;102882.38;;;8.97;66.68
48614;BME280;34408;51.426;5.444;2024-01-25T04:53:46;102881.53;;;8.97;66.68
48614;BME280;34408;51.426;5.444;2024-01-25T04:56:14;102878.19;;;8.95;66.52
48614;BME280;34408;51.426;5.444;2024-01-25T04:58:43;102875.50;;;8.95;66.84
48614;BME280;34408;51.426;5.444;2024-01-25T05:01:11;102876.50;;;8.94;66.24
48614;BME280;34408;51.426;5.444;2024-01-25T05:03:39;102878.34;;;8.93;66.51
48614;BME280;34408;51.426;5.444;2024-01-25T05:06:07;102875.00;;;8.91;66.00
48614;BME280;34408;51.426;5.444;2024-01-25T05:08:35;102873.31;;;8.90;66.35
48614;BME280;34408;51.426;5.444;2024-01-25T05:11:03;102867.28;;;8.88;66.37
48614;BME280;34408;51.426;5.444;2024-01-25T05:13:33;102857.53;;;8.87;66.40
48614;BME280;34408;51.426;5.444;2024-01-25T05:16:02;102856.88;;;8.85;66.58
48614;BME280;34408;51.426;5.444;2024-01-25T05:18:30;102857.88;;;8.84;66.40
48614;BME280;34408;51.426;5.444;2024-01-25T05:20:58;102858.72;;;8.85;66.01
48614;BME280;34408;51.426;5.444;2024-01-25T05:23:27;102859.88;;;8.82;66.59
48614;BME280;34408;51.426;5.444;2024-01-25T05:25:54;102856.34;;;8.81;66.63
48614;BME280;34408;51.426;5.444;2024-01-25T05:28:22;102854.81;;;8.79;66.14
48614;BME280;34408;51.426;5.444;2024-01-25T05:30:51;102875.44;;;8.78;66.42
48614;BME280;34408;51.426;5.444;2024-01-25T05:33:20;102875.59;;;8.77;66.53
48614;BME280;34408;51.426;5.444;2024-01-25T05:35:48;102872.91;;;8.77;66.34
48614;BME280;34408;51.426;5.444;2024-01-25T05:38:16;102872.22;;;8.75;65.86
48614;BME280;34408;51.426;5.444;2024-01-25T05:40:44;102865.00;;;8.67;65.78
48614;BME280;34408;51.426;5.444;2024-01-25T05:43:11;102871.03;;;8.69;65.63
48614;BME280;34408;51.426;5.444;2024-01-25T05:45:39;102877.91;;;8.72;66.62
48614;BME280;34408;51.426;5.444;2024-01-25T05:48:07;102886.13;;;8.70;66.14
48614;BME280;34408;51.426;5.444;2024-01-25T05:50:36;102889.63;;;8.71;66.63
48614;BME280;34408;51.426;5.444;2024-01-25T05:53:04;102880.91;;;8.69;66.49
48614;BME280;34408;51.426;5.444;2024-01-25T05:55:32;102890.94;;;8.67;66.23
48614;BME280;34408;51.426;5.444;2024-01-25T05:58:00;102892.81;;;8.66;66.19
48614;BME280;34408;51.426;5.444;2024-01-25T06:00:29;102890.31;;;8.65;66.62
48614;BME280;34408;51.426;5.444;2024-01-25T06:02:57;102885.94;;;8.64;66.60
48614;BME280;34408;51.426;5.444;2024-01-25T06:05:25;102890.47;;;8.63;66.63
48614;BME280;34408;51.426;5.444;2024-01-25T06:07:54;102887.09;;;8.61;66.14
48614;BME280;34408;51.426;5.444;2024-01-25T06:10:22;102886.09;;;8.62;66.01
48614;BME280;34408;51.426;5.444;2024-01-25T06:12:50;102877.22;;;8.62;66.13
48614;BME280;34408;51.426;5.444;2024-01-25T06:15:18;102871.81;;;8.54;66.42
48614;BME280;34408;51.426;5.444;2024-01-25T06:17:47;102890.47;;;8.63;66.33
48614;BME280;34408;51.426;5.444;2024-01-25T06:20:14;102879.00;;;8.53;66.07
48614;BME280;34408;51.426;5.444;2024-01-25T06:22:43;102899.50;;;8.62;66.24
48614;BME280;34408;51.426;5.444;2024-01-25T06:25:12;102898.81;;;8.60;65.92
48614;BME280;34408;51.426;5.444;2024-01-25T06:27:40;102898.97;;;8.59;66.57
48614;BME280;34408;51.426;5.444;2024-01-25T06:30:08;102908.69;;;8.60;66.23
48614;BME280;34408;51.426;5.444;2024-01-25T06:32:36;102911.38;;;8.60;66.09
48614;BME280;34408;51.426;5.444;2024-01-25T06:35:06;102910.53;;;8.59;65.86
48614;BME280;34408;51.426;5.444;2024-01-25T06:37:34;102915.38;;;8.56;65.95
48614;BME280;34408;51.426;5.444;2024-01-25T06:40:03;102904.81;;;8.54;66.61
48614;BME280;34408;51.426;5.444;2024-01-25T06:42:32;102899.47;;;8.54;66.47
48614;BME280;34408;51.426;5.444;2024-01-25T06:45:00;102897.78;;;8.53;66.44
48614;BME280;34408;51.426;5.444;2024-01-25T06:47:30;102902.28;;;8.53;66.13
48614;BME280;34408;51.426;5.444;2024-01-25T06:49:58;102906.97;;;8.51;66.16
48614;BME280;34408;51.426;5.444;2024-01-25T06:52:27;102902.44;;;8.51;66.64
48614;BME280;34408;51.426;5.444;2024-01-25T06:54:56;102898.25;;;8.48;66.20
48614;BME280;34408;51.426;5.444;2024-01-25T06:57:24;102900.94;;;8.48;65.92
48614;BME280;34408;51.426;5.444;2024-01-25T06:59:53;102908.28;;;8.46;66.44
48614;BME280;34408;51.426;5.444;2024-01-25T07:02:21;102910.97;;;8.46;65.92
48614;BME280;34408;51.426;5.444;2024-01-25T07:04:49;102913.81;;;8.45;66.27
48614;BME280;34408;51.426;5.444;2024-01-25T07:07:20;102914.78;;;8.44;65.95
48614;BME280;34408;51.426;5.444;2024-01-25T07:09:47;102895.31;;;8.34;66.45
48614;BME280;34408;51.426;5.444;2024-01-25T07:12:15;102902.63;;;8.32;66.11
48614;BME280;34408;51.426;5.444;2024-01-25T07:14:43;102897.56;;;8.29;65.68
48614;BME280;34408;51.426;5.444;2024-01-25T07:17:12;102913.34;;;8.32;66.05
48614;BME280;34408;51.426;5.444;2024-01-25T07:19:40;102923.94;;;8.33;65.79
48614;BME280;34408;51.426;5.444;2024-01-25T07:22:08;102923.94;;;8.33;66.09
48614;BME280;34408;51.426;5.444;2024-01-25T07:24:38;102924.06;;;8.32;65.93
48614;BME280;34408;51.426;5.444;2024-01-25T07:27:06;102916.84;;;8.32;65.71
48614;BME280;34408;51.426;5.444;2024-01-25T07:29:34;102915.19;;;8.31;65.90
48614;BME280;34408;51.426;5.444;2024-01-25T07:32:01;102918.84;;;8.30;65.46
48614;BME280;34408;51.426;5.444;2024-01-25T07:34:31;102922.38;;;8.31;65.83
48614;BME280;34408;51.426;5.444;2024-01-25T07:36:59;102920.84;;;8.28;65.24
48614;BME280;34408;51.426;5.444;2024-01-25T07:39:27;102933.41;;;8.28;65.89
48614;BME280;34408;51.426;5.444;2024-01-25T07:41:54;102931.88;;;8.25;65.58
48614;BME280;34408;51.426;5.444;2024-01-25T07:44:22;102925.50;;;8.26;65.95
48614;BME280;34408;51.426;5.444;2024-01-25T07:46:50;102924.69;;;8.26;66.12
48614;BME280;34408;51.426;5.444;2024-01-25T07:49:18;102924.81;;;8.24;65.97
48614;BME280;34408;51.426;5.444;2024-01-25T07:51:47;102910.53;;;8.15;65.88
48614;BME280;34408;51.426;5.444;2024-01-25T07:54:16;102917.94;;;8.22;65.52
48614;BME280;34408;51.426;5.444;2024-01-25T07:56:43;102920.47;;;8.23;65.71
48614;BME280;34408;51.426;5.444;2024-01-25T07:59:11;102924.16;;;8.22;65.68
48614;BME280;34408;51.426;5.444;2024-01-25T08:01:39;102930.50;;;8.21;65.96
48614;BME280;34408;51.426;5.444;2024-01-25T08:04:07;102921.09;;;8.17;65.88
48614;BME280;34408;51.426;5.444;2024-01-25T08:06:35;102931.50;;;8.20;65.97
48614;BME280;34408;51.426;5.444;2024-01-25T08:09:05;102933.34;;;8.20;65.74
48614;BME280;34408;51.426;5.444;2024-01-25T08:11:33;102937.69;;;8.21;65.61
48614;BME280;34408;51.426;5.444;2024-01-25T08:14:00;102946.72;;;8.20;66.12
48614;BME280;34408;51.426;5.444;2024-01-25T08:16:30;102948.56;;;8.19;66.86
48614;BME280;34408;51.426;5.444;2024-01-25T08:18:58;102950.41;;;8.19;66.09
48614;BME280;34408;51.426;5.444;2024-01-25T08:21:26;102945.03;;;8.19;65.98
48614;BME280;34408;51.426;5.444;2024-01-25T08:23:54;102949.72;;;8.16;66.33
48614;BME280;34408;51.426;5.444;2024-01-25T08:26:23;102958.44;;;8.19;66.40
48614;BME280;34408;51.426;5.444;2024-01-25T08:28:51;102931.97;;;8.15;66.73
48614;BME280;34408;51.426;5.444;2024-01-25T08:31:19;102918.56;;;8.15;66.23
48614;BME280;34408;51.426;5.444;2024-01-25T08:33:47;102912.38;;;8.15;66.45
48614;BME280;34408;51.426;5.444;2024-01-25T08:36:17;102913.22;;;8.15;66.80
48614;BME280;34408;51.426;5.444;2024-01-25T08:38:44;102915.88;;;8.15;66.50
48614;BME280;34408;51.426;5.444;2024-01-25T08:41:12;102923.09;;;8.15;67.25
48614;BME280;34408;51.426;5.444;2024-01-25T08:43:43;102930.97;;;8.16;66.75
48614;BME280;34408;51.426;5.444;2024-01-25T08:46:13;102933.78;;;8.15;66.66
48614;BME280;34408;51.426;5.444;2024-01-25T08:48:41;102947.34;;;8.13;66.60
48614;BME280;34408;51.426;5.444;2024-01-25T08:51:09;102939.16;;;8.15;66.63
48614;BME280;34408;51.426;5.444;2024-01-25T08:53:39;102946.19;;;8.16;67.13
48614;BME280;34408;51.426;5.444;2024-01-25T08:56:07;102946.19;;;8.16;67.22
48614;BME280;34408;51.426;5.444;2024-01-25T08:58:35;102924.75;;;8.16;66.78
48614;BME280;34408;51.426;5.444;2024-01-25T09:01:04;102928.28;;;8.16;67.35
48614;BME280;34408;51.426;5.444;2024-01-25T09:03:32;102949.78;;;8.25;67.12
48614;BME280;34408;51.426;5.444;2024-01-25T09:06:00;102945.72;;;8.38;66.61
48614;BME280;34408;51.426;5.444;2024-01-25T09:08:32;102941.50;;;8.54;65.67
48614;BME280;34408;51.426;5.444;2024-01-25T09:11:00;102944.25;;;8.70;65.65
48614;BME280;34408;51.426;5.444;2024-01-25T09:13:28;102943.50;;;8.86;65.04
48614;BME280;34408;51.426;5.444;2024-01-25T09:15:56;102947.28;;;9.01;64.22
48614;BME280;34408;51.426;5.444;2024-01-25T09:18:25;102957.09;;;9.18;64.48
48614;BME280;34408;51.426;5.444;2024-01-25T09:20:53;102954.63;;;9.33;63.66
48614;BME280;34408;51.426;5.444;2024-01-25T09:23:21;102946.59;;;9.41;63.68
48614;BME280;34408;51.426;5.444;2024-01-25T09:25:49;102941.91;;;9.43;63.57
48614;BME280;34408;51.426;5.444;2024-01-25T09:28:18;102943.63;;;9.52;62.96
48614;BME280;34408;51.426;5.444;2024-01-25T09:30:47;102932.56;;;9.63;63.29
48614;BME280;34408;51.426;5.444;2024-01-25T09:33:18;102927.22;;;9.71;62.85
48614;BME280;34408;51.426;5.444;2024-01-25T09:35:48;102938.81;;;9.80;62.51
48614;BME280;34408;51.426;5.444;2024-01-25T09:38:17;102940.69;;;9.88;62.66
48614;BME280;34408;51.426;5.444;2024-01-25T09:40:45;102934.81;;;9.92;62.31
48614;BME280;34408;51.426;5.444;2024-01-25T09:43:13;102936.00;;;9.98;62.18
48614;BME280;34408;51.426;5.444;2024-01-25T09:45:41;102938.69;;;10.06;61.94
48614;BME280;34408;51.426;5.444;2024-01-25T09:48:09;102937.34;;;10.10;61.77
48614;BME280;34408;51.426;5.444;2024-01-25T09:50:39;102940.69;;;10.12;61.85
48614;BME280;34408;51.426;5.444;2024-01-25T09:53:10;102948.41;;;10.15;61.83
48614;BME280;34408;51.426;5.444;2024-01-25T09:55:42;102947.94;;;10.20;61.62
48614;BME280;34408;51.426;5.444;2024-01-25T09:58:12;102950.13;;;10.24;61.82
48614;BME280;34408;51.426;5.444;2024-01-25T10:00:40;102946.44;;;10.25;61.65
48614;BME280;34408;51.426;5.444;2024-01-25T10:03:09;102945.56;;;10.17;62.00
48614;BME280;34408;51.426;5.444;2024-01-25T10:05:37;102931.97;;;10.10;62.35
48614;BME280;34408;51.426;5.444;2024-01-25T10:08:13;102937.00;;;10.05;62.36
48614;BME280;34408;51.426;5.444;2024-01-25T10:10:41;102936.47;;;9.93;62.65
48614;BME280;34408;51.426;5.444;2024-01-25T10:13:12;102921.53;;;9.83;63.23
48614;BME280;34408;51.426;5.444;2024-01-25T10:15:40;102925.72;;;9.69;63.61
48614;BME280;34408;51.426;5.444;2024-01-25T10:18:11;102924.84;;;9.52;64.49
48614;BME280;34408;51.426;5.444;2024-01-25T10:20:54;102918.09;;;9.40;64.98
48614;BME280;34408;51.426;5.444;2024-01-25T10:23:25;102905.13;;;9.27;64.93
48614;BME280;34408;51.426;5.444;2024-01-25T10:25:56;102911.66;;;9.25;65.22
48614;BME280;34408;51.426;5.444;2024-01-25T10:28:24;102915.00;;;9.19;65.60
48614;BME280;34408;51.426;5.444;2024-01-25T10:30:56;102910.13;;;9.14;65.70
48614;BME280;34408;51.426;5.444;2024-01-25T10:33:25;102924.69;;;9.11;66.53
48614;BME280;34408;51.426;5.444;2024-01-25T10:35:55;102910.75;;;9.08;66.29
48614;BME280;34408;51.426;5.444;2024-01-25T10:38:30;102902.19;;;9.04;66.63
48614;BME280;34408;51.426;5.444;2024-01-25T10:41:00;102897.50;;;9.06;66.84
48614;BME280;34408;51.426;5.444;2024-01-25T10:43:29;102884.66;;;9.18;66.12
48614;BME280;34408;51.426;5.444;2024-01-25T10:45:59;102885.38;;;9.36;65.47
48614;BME280;34408;51.426;5.444;2024-01-25T10:48:31;102874.84;;;9.51;65.05
48614;BME280;34408;51.426;5.444;2024-01-25T10:50:59;102868.47;;;9.68;64.78
48614;BME280;34408;51.426;5.444;2024-01-25T10:53:33;102872.19;;;9.84;64.41
48614;BME280;34408;51.426;5.444;2024-01-25T10:56:02;102859.09;;;9.89;63.95
48614;BME280;34408;51.426;5.444;2024-01-25T10:58:30;102870.19;;;9.94;63.88
48614;BME280;34408;51.426;5.444;2024-01-25T11:01:08;102874.53;;;10.03;63.68
48614;BME280;34408;51.426;5.444;2024-01-25T11:03:42;102867.47;;;10.10;63.76
48614;BME280;34408;51.426;5.444;2024-01-25T11:06:13;102869.00;;;10.13;63.52
48614;BME280;34408;51.426;5.444;2024-01-25T11:08:43;102872.34;;;10.06;63.73
48614;BME280;34408;51.426;5.444;2024-01-25T11:11:12;102866.97;;;9.98;64.23
48614;BME280;34408;51.426;5.444;2024-01-25T11:13:41;102865.97;;;9.83;64.67
48614;BME280;34408;51.426;5.444;2024-01-25T11:16:13;102864.47;;;9.72;64.99
48614;BME280;34408;51.426;5.444;2024-01-25T11:18:49;102848.69;;;9.61;65.70
48614;BME280;34408;51.426;5.444;2024-01-25T11:21:37;102840.97;;;9.58;65.68
48614;BME280;34408;51.426;5.444;2024-01-25T11:24:11;102834.41;;;9.53;66.21
48614;BME280;34408;51.426;5.444;2024-01-25T11:26:40;102838.75;;;9.45;66.43
48614;BME280;34408;51.426;5.444;2024-01-25T11:29:08;102830.03;;;9.43;66.60
48614;BME280;34408;51.426;5.444;2024-01-25T11:31:36;102830.38;;;9.40;66.53
48614;BME280;34408;51.426;5.444;2024-01-25T11:34:03;102832.53;;;9.37;66.87
48614;BME280;34408;51.426;5.444;2024-01-25T11:36:32;102824.97;;;9.32;67.07
48614;BME280;34408;51.426;5.444;2024-01-25T11:39:00;102826.00;;;9.31;67.21
48614;BME280;34408;51.426;5.444;2024-01-25T11:41:30;102831.69;;;9.28;67.36
48614;BME280;34408;51.426;5.444;2024-01-25T11:43:58;102827.50;;;9.26;67.38
48614;BME280;34408;51.426;5.444;2024-01-25T11:46:26;102803.66;;;9.23;67.24
48614;BME280;34408;51.426;5.444;2024-01-25T11:48:54;102810.03;;;9.22;67.81
48614;BME280;34408;51.426;5.444;2024-01-25T11:51:22;102827.97;;;9.21;67.51
48614;BME280;34408;51.426;5.444;2024-01-25T11:53:50;102811.03;;;9.21;67.60
48614;BME280;34408;51.426;5.444;2024-01-25T11:56:20;102818.09;;;9.22;68.21
48614;BME280;34408;51.426;5.444;2024-01-25T11:58:50;102820.78;;;9.22;68.27
48614;BME280;34408;51.426;5.444;2024-01-25T12:01:19;102825.97;;;9.23;68.51
48614;BME280;34408;51.426;5.444;2024-01-25T12:03:48;102819.78;;;9.23;68.17
48614;BME280;34408;51.426;5.444;2024-01-25T12:06:17;102832.34;;;9.22;67.82
48614;BME280;34408;51.426;5.444;2024-01-25T12:08:45;102819.94;;;9.21;67.79
48614;BME280;34408;51.426;5.444;2024-01-25T12:11:15;102811.03;;;9.21;67.93
48614;BME280;34408;51.426;5.444;2024-01-25T12:13:44;102807.19;;;9.23;68.44
48614;BME280;34408;51.426;5.444;2024-01-25T12:16:14;102800.31;;;9.21;68.49
48614;BME280;34408;51.426;5.444;2024-01-25T12:18:43;102784.56;;;9.26;68.08
48614;BME280;34408;51.426;5.444;2024-01-25T12:21:13;102757.91;;;9.24;68.75
48614;BME280;34408;51.426;5.444;2024-01-25T12:23:41;102740.28;;;9.22;68.39
48614;BME280;34408;51.426;5.444;2024-01-25T12:26:10;102750.34;;;9.20;68.62
48614;BME280;34408;51.426;5.444;2024-01-25T12:28:39;102751.84;;;9.22;68.59
48614;BME280;34408;51.426;5.444;2024-01-25T12:31:07;102751.34;;;9.19;68.78
48614;BME280;34408;51.426;5.444;2024-01-25T12:33:37;102752.34;;;9.18;68.54
48614;BME280;34408;51.426;5.444;2024-01-25T12:36:05;102760.56;;;9.16;68.63
48614;BME280;34408;51.426;5.444;2024-01-25T12:38:33;102765.09;;;9.16;69.06
48614;BME280;34408;51.426;5.444;2024-01-25T12:41:02;102758.72;;;9.17;68.59
48614;BME280;34408;51.426;5.444;2024-01-25T12:43:31;102747.84;;;9.18;68.66
48614;BME280;34408;51.426;5.444;2024-01-25T12:45:59;102758.41;;;9.20;68.91
48614;BME280;34408;51.426;5.444;2024-01-25T12:48:48;102757.56;;;9.19;69.04
48614;BME280;34408;51.426;5.444;2024-01-25T12:51:21;102753.88;;;9.20;69.13
48614;BME280;34408;51.426;5.444;2024-01-25T12:53:49;102754.88;;;9.19;68.69
48614;BME280;34408;51.426;5.444;2024-01-25T12:56:17;102750.50;;;9.18;69.26
48614;BME280;34408;51.426;5.444;2024-01-25T12:58:45;102742.47;;;9.18;68.94
48614;BME280;34408;51.426;5.444;2024-01-25T13:01:13;102739.78;;;9.18;69.06
48614;BME280;34408;51.426;5.444;2024-01-25T13:03:43;102731.06;;;9.16;68.89
48614;BME280;34408;51.426;5.444;2024-01-25T13:06:15;102739.63;;;9.20;69.03
48614;BME280;34408;51.426;5.444;2024-01-25T13:08:43;102728.06;;;9.19;68.93